Terminal Aerodrome Forecast
Issued by NWS

Home | Current Version | Previous Version | Text Only | Print | Product List | Glossary Off
Versions: 1 2 3 4 5 6 7 8 9 10 11 12 13 14 15 16 17 18 19 20 21 22 23 24 25 26 27 28 29 30 31

853
FTUS43 KBIS 272146 AAA
TAFDIK
TAF AMD
KDIK 272146Z 2722/2818 08007KT P6SM VCTS SCT030 BKN060CB
     FM272300 07008KT P6SM VCTS BKN050CB
      TEMPO 2800/2802 4SM -TSRA OVC025CB
     FM280500 10007KT P6SM BKN050
     FM281100 10007KT P6SM -SHRA VCTS OVC015CB=

USA.gov is the U.S. government's official web portal to all federal, state and local government web resources and services.